Time;durP1;ratioP1;P1;durP2;ratioP2;P2;SDS_P1;SDS_P2;PMS_P1;PMS_P2;Temp;Humidity;BMP_temperature;BMP_pressure;BME280_temperature;BME280_humidity;BME280_pressure;Samples;Min_cycle;Max_cycle;Signal;HPM_P1;HPM_P2
2021/12/06 00:00:41;;;;;;;31.07;18.43;;;5.60;98.60;;;;;;5013754;28;20033;-81
2021/12/06 00:03:11;;;;;;;32.60;20.23;;;5.60;98.60;;;;;;5015042;28;20026;-82
2021/12/06 00:05:37;;;;;;;32.67;21.27;;;5.60;98.60;;;;;;4997118;28;20117;-81
2021/12/06 00:08:03;;;;;;;35.43;21.50;;;5.60;98.50;;;;;;5014956;28;20497;-81
2021/12/06 00:10:30;;;;;;;34.27;19.47;;;5.60;98.60;;;;;;5013458;28;20030;-81
2021/12/06 00:12:56;;;;;;;34.13;21.93;;;5.60;98.60;;;;;;4997278;28;20041;-81
2021/12/06 00:15:22;;;;;;;41.67;23.23;;;5.60;98.60;;;;;;4997318;28;20025;-81
2021/12/06 00:17:48;;;;;;;37.53;21.57;;;5.60;98.60;;;;;;5014534;28;20026;-81
2021/12/06 00:20:15;;;;;;;37.17;22.57;;;5.50;98.50;;;;;;5012669;28;20103;-81
2021/12/06 00:22:41;;;;;;;33.70;22.43;;;5.60;98.60;;;;;;4997288;28;20026;-81
2021/12/06 00:25:09;;;;;;;39.23;23.80;;;5.50;98.60;;;;;;5014477;28;20017;-81
2021/12/06 00:27:37;;;;;;;38.10;24.33;;;5.50;98.70;;;;;;5014225;28;20057;-80
2021/12/06 00:30:04;;;;;;;40.73;23.80;;;5.60;98.70;;;;;;5014371;28;20410;-81
2021/12/06 00:32:30;;;;;;;41.90;23.97;;;5.50;98.70;;;;;;5014042;28;20398;-80
2021/12/06 00:34:56;;;;;;;38.40;22.90;;;5.50;98.80;;;;;;5014240;28;20026;-81
2021/12/06 00:37:29;;;;;;;46.30;25.10;;;5.50;98.80;;;;;;5014641;28;20080;-81
2021/12/06 00:39:59;;;;;;;38.53;25.27;;;5.50;98.80;;;;;;4996758;28;20017;-81
2021/12/06 00:42:28;;;;;;;39.87;24.77;;;5.50;98.80;;;;;;5014037;28;20018;-81
2021/12/06 00:44:54;;;;;;;45.40;25.27;;;5.50;98.90;;;;;;4996878;28;20022;-80
2021/12/06 00:47:20;;;;;;;43.57;26.33;;;5.50;98.90;;;;;;5014107;28;20064;-81
2021/12/06 00:49:47;;;;;;;39.53;23.83;;;5.40;98.90;;;;;;5012879;28;20033;-81
2021/12/06 00:52:13;;;;;;;37.70;23.30;;;5.40;98.90;;;;;;4996236;28;20022;-80
2021/12/06 00:54:39;;;;;;;41.27;25.37;;;5.40;98.90;;;;;;4996171;28;20382;-81
2021/12/06 00:57:07;;;;;;;37.77;23.40;;;5.40;99.00;;;;;;4996408;28;20028;-81
2021/12/06 00:59:33;;;;;;;45.90;26.00;;;5.40;99.00;;;;;;5014045;28;20026;-81
2021/12/06 01:02:00;;;;;;;45.73;26.77;;;5.40;99.10;;;;;;4996333;28;20061;-80
2021/12/06 01:04:28;;;;;;;41.67;24.53;;;5.40;99.10;;;;;;5013926;28;20524;-81
2021/12/06 01:06:54;;;;;;;40.87;25.20;;;5.50;99.10;;;;;;5014149;28;20018;-81
2021/12/06 01:09:20;;;;;;;43.20;25.57;;;5.40;99.10;;;;;;5013946;28;20030;-81
2021/12/06 01:11:45;;;;;;;40.37;24.77;;;5.40;99.10;;;;;;5012593;28;20030;-81
2021/12/06 01:14:11;;;;;;;44.27;24.00;;;5.40;99.10;;;;;;5012288;28;20065;-81
2021/12/06 01:16:37;;;;;;;42.13;24.30;;;5.40;99.10;;;;;;5012460;28;20033;-81
2021/12/06 01:19:04;;;;;;;44.83;24.90;;;5.50;99.20;;;;;;4996134;28;20093;-81
2021/12/06 01:22:39;;;;;;;42.40;25.73;;;5.50;99.30;;;;;;4996177;28;20021;-82
2021/12/06 01:24:29;;;;;;;;;;;5.40;99.30;;;;;;4992090;28;20495;-82
2021/12/06 01:32:05;;;;;;;43.77;26.03;;;5.40;99.20;;;;;;5012146;28;20077;-81
2021/12/06 01:39:59;;;;;;;42.10;23.17;;;5.40;99.20;;;;;;5012771;28;20041;-82
2021/12/06 01:42:25;;;;;;;43.97;24.70;;;5.50;99.30;;;;;;5013540;28;20021;-82
2021/12/06 01:44:56;;;;;;;45.73;26.00;;;5.50;99.40;;;;;;5028420;28;20369;-82
2021/12/06 01:47:33;;;;;;;45.77;27.03;;;5.50;99.40;;;;;;5032893;28;20033;-80
2021/12/06 01:50:08;;;;;;;42.67;25.13;;;5.50;99.40;;;;;;5033106;28;20017;-82
2021/12/06 01:52:39;;;;;;;50.00;26.77;;;5.60;99.40;;;;;;5015354;28;20350;-82
2021/12/06 01:55:09;;;;;;;45.10;25.13;;;5.50;99.40;;;;;;5015354;28;20090;-82
2021/12/06 01:57:34;;;;;;;43.37;26.30;;;5.60;99.40;;;;;;5016201;28;20121;-82
2021/12/06 02:00:03;;;;;;;49.30;26.47;;;5.50;99.40;;;;;;5015299;28;20112;-83
2021/12/06 02:02:29;;;;;;;45.93;26.03;;;5.60;99.40;;;;;;5015151;28;20017;-82
2021/12/06 02:04:55;;;;;;;48.57;26.17;;;5.50;99.40;;;;;;5015297;28;20431;-82
2021/12/06 02:07:24;;;;;;;55.90;30.43;;;5.70;99.50;;;;;;5032058;28;20026;-81
2021/12/06 02:09:51;;;;;;;50.60;27.47;;;5.60;99.50;;;;;;5032806;28;20017;-80
2021/12/06 02:12:18;;;;;;;48.57;27.77;;;5.60;99.40;;;;;;5015169;28;20037;-82
2021/12/06 02:17:18;;;;;;;54.80;27.70;;;5.60;99.50;;;;;;5015388;28;20041;-81
2021/12/06 02:19:48;;;;;;;52.83;28.98;;;5.60;99.50;;;;;;5033002;28;20017;-81
2021/12/06 02:22:27;;;;;;;52.73;27.30;;;5.60;99.50;;;;;;5032638;28;20025;-81
2021/12/06 02:24:55;;;;;;;52.60;28.83;;;5.60;99.50;;;;;;5014970;28;20071;-82
2021/12/06 02:27:24;;;;;;;48.90;26.23;;;5.60;99.50;;;;;;5014917;28;20024;-81
2021/12/06 02:29:51;;;;;;;57.20;29.53;;;5.60;99.50;;;;;;5015071;28;20032;-81
2021/12/06 02:32:17;;;;;;;55.27;29.63;;;5.60;99.50;;;;;;5014912;28;20029;-81
2021/12/06 02:34:51;;;;;;;58.40;29.57;;;5.60;99.50;;;;;;5032645;28;20096;-81
2021/12/06 02:37:21;;;;;;;36.75;19.83;;;5.70;99.50;;;;;;5032569;28;20018;-81
2021/12/06 02:39:47;;;;;;;50.43;27.37;;;5.70;99.50;;;;;;5032356;28;20013;-81
2021/12/06 02:42:15;;;;;;;58.83;30.10;;;5.70;99.50;;;;;;5032654;28;20091;-81
2021/12/06 02:44:43;;;;;;;58.93;29.90;;;5.60;99.50;;;;;;5018605;28;20036;-80
2021/12/06 02:47:09;;;;;;;55.40;29.37;;;5.70;99.50;;;;;;5018547;28;20373;-81
2021/12/06 02:49:34;;;;;;;63.03;30.37;;;5.70;99.60;;;;;;5018309;28;20029;-81
2021/12/06 02:52:01;;;;;;;65.63;31.73;;;5.70;99.50;;;;;;5018298;28;20029;-81
2021/12/06 02:54:27;;;;;;;58.53;29.63;;;5.70;99.50;;;;;;5002000;28;20049;-81
2021/12/06 02:57:18;;;;;;;56.73;28.43;;;5.70;99.50;;;;;;5036450;28;20022;-82
2021/12/06 02:59:44;;;;;;;53.70;28.23;;;5.70;99.60;;;;;;5036155;28;20428;-82
2021/12/06 03:02:17;;;;;;;55.37;28.93;;;5.70;99.60;;;;;;5018324;28;20013;-82
2021/12/06 03:04:43;;;;;;;58.23;29.77;;;5.70;99.60;;;;;;5035985;28;20064;-82
2021/12/06 03:07:10;;;;;;;60.77;29.60;;;5.70;99.60;;;;;;5017913;28;20023;-82
2021/12/06 03:09:38;;;;;;;55.53;30.50;;;5.70;99.60;;;;;;5018267;28;20025;-82
2021/12/06 03:12:09;;;;;;;57.03;29.03;;;5.60;99.60;;;;;;5036097;28;20108;-82
2021/12/06 03:14:39;;;;;;;56.57;29.77;;;5.70;99.60;;;;;;5018032;28;20040;-82
2021/12/06 03:17:08;;;;;;;51.17;28.67;;;5.60;99.60;;;;;;5035740;28;20521;-81
2021/12/06 03:19:35;;;;;;;61.30;30.60;;;5.60;99.60;;;;;;5017756;28;20021;-80
2021/12/06 03:22:01;;;;;;;54.00;27.77;;;5.70;99.60;;;;;;5018248;28;20411;-80
2021/12/06 03:24:27;;;;;;;59.03;29.37;;;5.60;99.60;;;;;;5017955;28;20112;-80
2021/12/06 03:26:53;;;;;;;58.40;28.73;;;5.70;99.70;;;;;;5035599;28;20465;-81
2021/12/06 03:29:20;;;;;;;60.60;29.37;;;5.60;99.70;;;;;;5035722;28;20068;-82
2021/12/06 03:31:49;;;;;;;64.47;31.43;;;5.60;99.70;;;;;;5035202;28;20022;-81
2021/12/06 03:34:16;;;;;;;59.33;29.23;;;5.70;99.80;;;;;;5001736;28;20037;-81
2021/12/06 03:36:42;;;;;;;61.87;29.53;;;5.70;99.70;;;;;;5035526;28;20026;-81
2021/12/06 03:39:23;;;;;;;58.10;29.43;;;5.70;99.60;;;;;;5001287;28;20030;-81
2021/12/06 03:41:55;;;;;;;60.00;30.33;;;5.60;99.60;;;;;;5017227;28;20047;-81
2021/12/06 03:44:21;;;;;;;53.63;27.47;;;5.60;99.60;;;;;;5017298;28;20025;-81
2021/12/06 03:46:51;;;;;;;59.40;29.67;;;5.70;99.60;;;;;;5035202;28;20024;-81
2021/12/06 03:49:18;;;;;;;58.60;28.70;;;5.50;99.60;;;;;;5017240;28;20025;-81
2021/12/06 03:51:45;;;;;;;57.23;29.50;;;5.60;99.60;;;;;;5035267;28;20029;-81
2021/12/06 03:54:14;;;;;;;57.97;28.77;;;5.60;99.60;;;;;;5034377;28;20389;-80
2021/12/06 03:56:41;;;;;;;58.57;28.90;;;5.60;99.60;;;;;;5017202;28;20095;-80
2021/12/06 03:59:07;;;;;;;55.07;29.13;;;5.60;99.60;;;;;;5017097;28;20053;-80
2021/12/06 04:01:33;;;;;;;58.87;30.33;;;5.50;99.50;;;;;;5016945;28;20026;-80
2021/12/06 04:04:00;;;;;;;59.50;28.73;;;5.50;99.50;;;;;;5016838;28;20104;-81
2021/12/06 04:06:26;;;;;;;56.13;27.97;;;5.60;99.60;;;;;;5016894;28;20533;-81
2021/12/06 04:08:52;;;;;;;56.03;29.13;;;5.60;99.60;;;;;;5016861;28;20060;-82
2021/12/06 04:11:17;;;;;;;56.87;29.50;;;5.60;99.60;;;;;;5016750;28;20021;-82
2021/12/06 04:13:43;;;;;;;59.50;30.17;;;5.50;99.60;;;;;;5034481;28;20048;-82
2021/12/06 04:16:09;;;;;;;62.57;29.90;;;5.50;99.60;;;;;;5000855;28;20398;-82
2021/12/06 04:18:34;;;;;;;63.47;30.40;;;5.60;99.60;;;;;;5017261;28;20025;-82
2021/12/06 04:21:00;;;;;;;60.50;29.07;;;5.60;99.60;;;;;;5034235;28;20041;-82
2021/12/06 04:23:27;;;;;;;59.83;31.20;;;5.60;99.60;;;;;;5016990;28;20029;-82
2021/12/06 04:25:52;;;;;;;60.53;29.53;;;5.50;99.60;;;;;;5034188;28;20068;-82
2021/12/06 04:28:19;;;;;;;64.70;30.00;;;5.50;99.60;;;;;;5016347;28;20504;-82
2021/12/06 04:30:46;;;;;;;65.50;31.60;;;5.50;99.70;;;;;;5016551;28;20164;-82
2021/12/06 04:33:13;;;;;;;61.73;30.60;;;5.50;99.70;;;;;;5016493;28;20038;-83
2021/12/06 04:35:41;;;;;;;61.20;31.77;;;5.60;99.70;;;;;;5034197;28;20021;-82
2021/12/06 04:38:08;;;;;;;63.33;30.80;;;5.50;99.70;;;;;;5033879;28;20026;-84
2021/12/06 04:40:34;;;;;;;65.53;31.33;;;5.50;99.70;;;;;;5000046;28;20018;-83
2021/12/06 04:43:01;;;;;;;59.40;30.17;;;5.60;99.80;;;;;;5034057;28;20087;-83
2021/12/06 04:45:27;;;;;;;59.73;30.17;;;5.60;99.70;;;;;;5034085;28;20354;-82
2021/12/06 04:47:53;;;;;;;62.10;32.73;;;5.50;99.70;;;;;;5033903;28;20032;-82
2021/12/06 04:50:23;;;;;;;61.33;29.87;;;5.50;99.60;;;;;;5034097;28;20021;-83
2021/12/06 04:52:49;;;;;;;64.77;31.77;;;5.60;99.70;;;;;;5033723;28;20028;-82
2021/12/06 04:55:23;;;;;;;65.30;31.07;;;5.50;99.60;;;;;;5016312;28;20068;-81
2021/12/06 04:57:49;;;;;;;;;;;5.50;99.60;;;;;;5034447;28;20021;-81
2021/12/06 05:00:27;;;;;;;60.43;29.17;;;5.50;99.60;;;;;;5016551;28;19948;-81
2021/12/06 05:02:53;;;;;;;63.80;30.30;;;5.50;99.60;;;;;;5033919;28;20033;-81
2021/12/06 05:05:23;;;;;;;61.73;30.67;;;5.50;99.50;;;;;;5015481;28;20104;-81
2021/12/06 05:07:53;;;;;;;63.17;29.47;;;5.40;99.50;;;;;;5013521;28;20018;-81
2021/12/06 05:10:20;;;;;;;61.20;31.53;;;5.40;99.50;;;;;;5032593;28;20021;-81
2021/12/06 05:12:47;;;;;;;59.77;30.03;;;5.40;99.40;;;;;;5027170;28;20438;-82
2021/12/06 05:15:13;;;;;;;67.40;31.37;;;5.50;99.40;;;;;;5000000;28;20029;-81
2021/12/06 05:17:40;;;;;;;64.77;29.30;;;5.30;99.40;;;;;;5016200;28;20164;-81
2021/12/06 05:20:07;;;;;;;64.43;29.63;;;5.20;99.30;;;;;;5003039;28;20064;-81
2021/12/06 05:22:33;;;;;;;62.97;29.63;;;5.30;99.30;;;;;;5016033;28;20088;-82
2021/12/06 05:25:00;;;;;;;66.13;29.83;;;5.20;99.30;;;;;;5001886;28;20117;-83
2021/12/06 05:27:29;;;;;;;65.43;29.73;;;5.20;99.30;;;;;;4994935;28;20022;-82
2021/12/06 05:29:59;;;;;;;57.63;28.93;;;5.20;99.20;;;;;;5011481;28;20049;-83
2021/12/06 05:32:26;;;;;;;61.03;28.43;;;5.10;99.20;;;;;;4996426;28;20117;-82
2021/12/06 05:35:01;;;;;;;63.50;27.80;;;5.10;99.20;;;;;;5028801;28;20065;-83
2021/12/06 05:37:27;;;;;;;67.23;30.07;;;5.00;99.10;;;;;;5013903;28;20033;-83
2021/12/06 05:39:54;;;;;;;66.90;32.03;;;4.90;99.00;;;;;;5013471;28;20026;-82
2021/12/06 05:42:20;;;;;;;58.17;28.30;;;4.90;99.10;;;;;;5028593;28;20025;-82
2021/12/06 05:44:46;;;;;;;76.30;31.77;;;4.90;99.10;;;;;;5028689;28;20037;-82
2021/12/06 05:47:12;;;;;;;67.93;29.27;;;4.80;99.00;;;;;;5013454;28;20029;-82
2021/12/06 05:49:38;;;;;;;62.63;29.57;;;4.80;99.00;;;;;;4979053;28;20080;-82
2021/12/06 05:52:04;;;;;;;69.73;29.67;;;4.70;99.00;;;;;;4995865;28;20026;-80
2021/12/06 05:54:31;;;;;;;63.20;29.43;;;4.70;99.00;;;;;;4995591;28;20045;-82
2021/12/06 05:56:57;;;;;;;64.90;29.40;;;4.60;99.00;;;;;;5013329;28;20054;-81
2021/12/06 05:59:23;;;;;;;66.90;30.53;;;4.60;99.10;;;;;;4995330;28;20050;-81
2021/12/06 06:01:50;;;;;;;81.00;32.53;;;4.60;99.10;;;;;;5012669;28;20351;-82
2021/12/06 06:04:16;;;;;;;71.33;30.63;;;4.50;99.40;;;;;;5013176;28;20374;-82
2021/12/06 06:06:42;;;;;;;69.17;31.03;;;4.50;99.20;;;;;;5013289;28;20532;-82
2021/12/06 06:09:08;;;;;;;76.47;31.90;;;4.50;99.30;;;;;;4995589;28;20022;-82
2021/12/06 06:11:35;;;;;;;70.40;31.37;;;4.50;99.30;;;;;;4995474;28;20026;-81
2021/12/06 06:14:05;;;;;;;70.77;30.77;;;4.50;99.40;;;;;;5012916;28;20026;-82
2021/12/06 06:16:35;;;;;;;71.00;31.80;;;4.50;99.60;;;;;;4995438;28;20026;-81
2021/12/06 06:19:01;;;;;;;70.77;31.60;;;4.60;99.60;;;;;;4998227;28;20021;-81
2021/12/06 06:21:27;;;;;;;68.93;30.83;;;4.60;99.70;;;;;;5008643;28;20041;-81
2021/12/06 06:23:53;;;;;;;61.83;30.83;;;4.60;99.70;;;;;;4998783;28;20053;-81
2021/12/06 06:26:19;;;;;;;68.63;31.33;;;4.60;99.70;;;;;;5016012;28;20061;-81
2021/12/06 06:28:44;;;;;;;72.30;32.17;;;4.60;99.70;;;;;;4992009;28;20095;-81
2021/12/06 06:31:10;;;;;;;71.33;32.27;;;4.60;99.80;;;;;;5008356;28;20017;-81
2021/12/06 06:33:36;;;;;;;64.33;31.17;;;4.60;99.80;;;;;;4993361;28;20500;-81
2021/12/06 06:36:01;;;;;;;72.97;32.87;;;4.60;99.80;;;;;;5025039;28;20033;-81
2021/12/06 06:38:27;;;;;;;70.27;32.80;;;4.60;99.90;;;;;;4992095;28;20108;-81
2021/12/06 06:40:53;;;;;;;67.77;32.57;;;4.60;99.90;;;;;;4992694;28;20489;-81
2021/12/06 06:43:19;;;;;;;69.33;32.97;;;4.60;99.90;;;;;;5024771;28;20488;-81
2021/12/06 06:45:45;;;;;;;67.20;32.83;;;4.60;99.90;;;;;;5008632;28;20017;-81
2021/12/06 06:48:11;;;;;;;68.33;33.63;;;4.60;99.90;;;;;;5026150;28;20024;-80
2021/12/06 06:50:37;;;;;;;63.80;31.63;;;4.70;99.90;;;;;;5024287;28;20057;-81
2021/12/06 06:53:03;;;;;;;63.53;31.73;;;4.70;99.90;;;;;;5006867;28;20026;-81
2021/12/06 06:55:29;;;;;;;65.33;31.70;;;4.80;99.90;;;;;;4991290;28;20056;-81
2021/12/06 06:57:55;;;;;;;62.33;31.63;;;4.70;99.90;;;;;;5026520;28;20136;-81
2021/12/06 07:00:31;;;;;;;63.93;32.03;;;4.80;99.90;;;;;;5006972;28;20373;-80
2021/12/06 07:02:57;;;;;;;68.93;30.37;;;4.70;99.90;;;;;;5007228;28;20010;-81
2021/12/06 07:05:24;;;;;;;62.47;30.20;;;4.80;99.90;;;;;;4992475;28;20463;-81
2021/12/06 07:07:50;;;;;;;64.00;30.73;;;4.80;99.90;;;;;;5009798;28;20536;-81
2021/12/06 07:10:15;;;;;;;64.20;31.23;;;4.80;99.90;;;;;;5027589;28;20088;-81
2021/12/06 07:12:50;;;;;;;62.80;31.50;;;4.80;99.90;;;;;;5015895;28;20022;-81
2021/12/06 07:15:19;;;;;;;62.57;32.60;;;4.90;99.90;;;;;;5015742;28;20032;-81
2021/12/06 07:17:46;;;;;;;73.23;35.90;;;4.90;99.90;;;;;;4997830;28;20060;-81
2021/12/06 07:20:13;;;;;;;66.33;32.10;;;4.80;99.90;;;;;;4997981;28;20373;-81
2021/12/06 07:22:39;;;;;;;62.17;32.37;;;4.80;99.90;;;;;;5015429;28;20099;-81
2021/12/06 07:25:06;;;;;;;57.27;30.97;;;4.90;99.90;;;;;;5015566;28;20017;-81
2021/12/06 07:27:32;;;;;;;65.97;31.83;;;4.90;99.90;;;;;;5015223;28;20032;-81
2021/12/06 07:29:58;;;;;;;64.20;30.83;;;4.90;99.90;;;;;;5015137;28;20361;-81
2021/12/06 07:32:23;;;;;;;70.67;35.60;;;4.90;99.90;;;;;;5015783;28;20021;-81
2021/12/06 07:34:51;;;;;;;68.30;32.37;;;4.90;99.90;;;;;;4997796;28;20040;-81
2021/12/06 07:37:16;;;;;;;62.77;31.03;;;4.90;99.90;;;;;;4998681;28;20033;-82
2021/12/06 07:39:42;;;;;;;60.03;29.80;;;4.90;99.90;;;;;;5015707;28;20018;-82
2021/12/06 07:42:11;;;;;;;59.43;30.60;;;4.90;99.90;;;;;;4998368;28;20038;-81
2021/12/06 07:44:38;;;;;;;59.63;29.00;;;4.90;99.90;;;;;;5008168;28;20034;-83
2021/12/06 07:47:04;;;;;;;58.60;31.27;;;5.00;99.90;;;;;;5026195;28;20516;-81
2021/12/06 07:49:29;;;;;;;58.90;31.20;;;5.00;99.90;;;;;;5026424;28;20029;-83
2021/12/06 07:51:55;;;;;;;65.13;32.53;;;5.00;99.90;;;;;;5033739;28;20029;-83
2021/12/06 07:54:21;;;;;;;66.27;31.03;;;5.00;99.90;;;;;;4998143;28;20066;-80
2021/12/06 07:56:47;;;;;;;61.57;32.70;;;5.00;99.90;;;;;;5034201;28;20049;-82
2021/12/06 07:59:13;;;;;;;54.03;29.50;;;5.00;99.90;;;;;;5030631;28;20028;-82
2021/12/06 08:01:39;;;;;;;58.13;29.83;;;5.00;99.90;;;;;;5001262;28;20021;-87
2021/12/06 08:04:05;;;;;;;58.83;31.17;;;5.00;99.90;;;;;;5017049;28;20047;-83
2021/12/06 08:06:30;;;;;;;56.90;30.57;;;5.00;99.90;;;;;;5016855;28;20347;-84
2021/12/06 08:08:56;;;;;;;62.03;32.83;;;5.10;99.90;;;;;;5017323;28;20402;-83
2021/12/06 08:11:23;;;;;;;57.07;29.93;;;5.00;99.80;;;;;;5016399;28;20030;-83
2021/12/06 08:13:53;;;;;;;62.03;30.60;;;5.00;99.80;;;;;;5035010;28;20029;-85
2021/12/06 08:16:22;;;;;;;57.67;29.93;;;5.00;99.80;;;;;;5016499;28;20462;-84
2021/12/06 08:18:48;;;;;;;55.77;28.97;;;5.00;99.80;;;;;;5034077;28;20024;-86
2021/12/06 08:21:18;;;;;;;54.30;29.03;;;5.00;99.90;;;;;;5034344;28;20013;-88
2021/12/06 08:23:44;;;;;;;54.30;28.07;;;5.00;99.90;;;;;;5017168;28;20096;-86
2021/12/06 08:26:13;;;;;;;48.63;27.93;;;5.00;99.90;;;;;;5000654;28;20401;-85
2021/12/06 08:28:39;;;;;;;54.43;29.27;;;5.10;99.90;;;;;;5034012;28;20017;-86
2021/12/06 08:31:06;;;;;;;52.53;29.40;;;5.10;99.90;;;;;;5016303;28;20055;-84
2021/12/06 08:33:34;;;;;;;52.27;28.83;;;5.10;99.90;;;;;;5034294;28;20469;-85
2021/12/06 08:36:00;;;;;;;44.70;26.63;;;5.10;99.80;;;;;;5034401;28;20022;-84
2021/12/06 08:38:30;;;;;;;48.60;27.90;;;5.20;99.90;;;;;;5033543;28;20111;-87
2021/12/06 08:40:58;;;;;;;50.87;28.73;;;5.10;99.80;;;;;;5033347;28;20373;-86
2021/12/06 08:43:23;;;;;;;57.53;30.20;;;5.20;99.90;;;;;;5034691;28;20450;-87
2021/12/06 08:46:02;;;;;;;51.27;29.30;;;5.20;99.90;;;;;;5015376;28;20052;-85
2021/12/06 08:48:31;;;;;;;53.50;28.50;;;5.20;99.80;;;;;;5016262;28;20090;-85
2021/12/06 08:50:59;;;;;;;54.20;29.03;;;5.20;99.70;;;;;;5034018;28;20362;-84
2021/12/06 08:53:25;;;;;;;50.80;28.37;;;5.20;99.70;;;;;;5001052;28;20389;-85
2021/12/06 08:55:51;;;;;;;51.33;27.43;;;5.20;99.70;;;;;;5015382;28;20041;-83
2021/12/06 08:58:18;;;;;;;50.20;28.23;;;5.20;99.70;;;;;;4997410;28;20037;-85
2021/12/06 09:00:44;;;;;;;53.07;28.93;;;5.10;99.60;;;;;;5001422;28;20025;-85
2021/12/06 09:03:11;;;;;;;56.57;30.53;;;5.20;99.60;;;;;;4975280;28;20021;-84
2021/12/06 09:05:43;;;;;;;50.03;26.70;;;5.20;99.80;;;;;;5000050;28;20079;-84
2021/12/06 09:08:09;;;;;;;51.17;27.63;;;5.10;99.60;;;;;;5016461;28;20025;-84
2021/12/06 09:10:36;;;;;;;46.57;28.37;;;5.20;99.60;;;;;;5033874;28;20022;-85
2021/12/06 09:13:04;;;;;;;48.70;28.20;;;5.20;99.60;;;;;;5015819;28;20028;-84
2021/12/06 09:15:30;;;;;;;54.60;30.03;;;5.10;99.50;;;;;;5033542;28;20026;-85
2021/12/06 09:17:56;;;;;;;48.70;28.67;;;5.10;99.50;;;;;;5015749;28;20480;-84
2021/12/06 09:20:30;;;;;;;51.73;28.03;;;5.20;99.50;;;;;;5016460;28;20029;-85
2021/12/06 09:22:55;;;;;;;39.80;22.75;;;5.20;99.50;;;;;;5032749;28;20017;-84
2021/12/06 09:25:21;;;;;;;51.03;28.73;;;5.20;99.50;;;;;;5015280;28;20036;-85
2021/12/06 09:27:47;;;;;;;48.63;29.23;;;5.20;99.50;;;;;;5007156;28;20025;-85
2021/12/06 09:30:19;;;;;;;49.93;30.23;;;5.10;99.40;;;;;;5033900;28;20060;-90
2021/12/06 09:32:46;;;;;;;48.57;29.77;;;5.10;99.30;;;;;;5016343;28;20469;-88
2021/12/06 09:35:15;;;;;;;54.90;30.47;;;5.10;99.30;;;;;;5033327;28;20131;-84
2021/12/06 09:37:42;;;;;;;50.20;28.87;;;5.10;99.30;;;;;;5033108;28;20017;-84
2021/12/06 09:40:09;;;;;;;51.90;31.07;;;5.10;99.30;;;;;;5016044;28;20029;-83
2021/12/06 09:42:37;;;;;;;47.60;30.20;;;5.10;99.30;;;;;;5015736;28;20421;-83
2021/12/06 09:45:06;;;;;;;49.77;29.50;;;5.10;99.30;;;;;;5015512;28;20369;-83
2021/12/06 09:47:32;;;;;;;50.23;30.17;;;5.10;99.30;;;;;;5033513;28;20106;-89
2021/12/06 09:49:58;;;;;;;52.50;28.80;;;5.00;99.30;;;;;;4999005;28;20461;-86
2021/12/06 09:52:24;;;;;;;48.30;28.83;;;5.10;99.40;;;;;;5017635;28;20149;-86
2021/12/06 09:54:50;;;;;;;53.70;29.97;;;5.20;99.50;;;;;;5037563;28;20053;-90
2021/12/06 09:57:16;;;;;;;48.20;28.23;;;5.10;99.40;;;;;;5023219;28;20013;-91
2021/12/06 09:59:43;;;;;;;46.43;27.57;;;5.10;99.40;;;;;;5024167;28;20033;-87
2021/12/06 10:02:14;;;;;;;53.47;30.27;;;5.10;99.40;;;;;;5003827;28;20457;-85
2021/12/06 10:04:45;;;;;;;48.73;28.60;;;5.10;99.40;;;;;;5037300;28;20021;-88
2021/12/06 10:07:12;;;;;;;52.13;30.17;;;5.20;99.50;;;;;;5038322;28;20029;-85
2021/12/06 10:09:39;;;;;;;48.20;28.80;;;5.20;99.50;;;;;;5003331;28;20029;-85
2021/12/06 10:12:06;;;;;;;48.60;27.67;;;5.20;99.50;;;;;;5038000;28;20049;-84
2021/12/06 10:14:32;;;;;;;49.43;29.37;;;5.20;99.50;;;;;;5003027;28;20033;-84
2021/12/06 10:16:58;;;;;;;56.07;30.30;;;5.20;99.50;;;;;;5036907;28;20096;-85
2021/12/06 10:19:25;;;;;;;56.13;30.27;;;5.20;99.40;;;;;;5003283;28;20048;-84
2021/12/06 10:21:52;;;;;;;51.30;30.77;;;5.20;99.50;;;;;;5037555;28;20021;-86
2021/12/06 10:24:24;;;;;;;51.33;29.77;;;5.10;99.50;;;;;;5014225;28;20470;-84
2021/12/06 10:27:05;;;;;;;52.83;30.90;;;5.20;99.50;;;;;;5031180;28;20112;-84
2021/12/06 10:29:39;;;;;;;50.03;28.60;;;5.20;99.50;;;;;;5017148;28;20053;-82
2021/12/06 10:32:12;;;;;;;47.97;30.27;;;5.20;99.40;;;;;;5016445;28;20377;-81
2021/12/06 10:34:45;;;;;;;47.83;29.73;;;5.20;99.30;;;;;;4998872;28;20504;-83
2021/12/06 10:37:30;;;;;;;44.33;28.73;;;5.20;99.30;;;;;;5016101;28;20478;-83
2021/12/06 10:39:56;;;;;;;53.50;30.23;;;5.20;99.30;;;;;;4999929;28;20073;-83
2021/12/06 10:42:36;;;;;;;48.90;29.07;;;5.20;99.30;;;;;;4998834;28;20367;-81
2021/12/06 10:45:09;;;;;;;48.83;28.47;;;5.10;99.30;;;;;;5016719;28;20033;-81
2021/12/06 10:47:35;;;;;;;44.03;26.77;;;5.20;99.40;;;;;;5003801;28;20025;-81
2021/12/06 10:50:27;;;;;;;45.37;26.10;;;5.20;99.30;;;;;;5017569;28;20267;-83
2021/12/06 10:52:56;;;;;;;46.27;27.73;;;5.10;99.30;;;;;;4998744;28;20044;-83
2021/12/06 10:55:25;;;;;;;46.87;29.17;;;5.20;99.30;;;;;;5016094;28;20128;-87
2021/12/06 10:58:04;;;;;;;52.83;30.30;;;5.20;99.30;;;;;;5016676;28;20343;-84
2021/12/06 11:00:51;;;;;;;44.33;26.67;;;5.20;99.30;;;;;;5015733;28;20026;-84
2021/12/06 11:03:29;;;;;;;47.97;29.30;;;5.20;99.30;;;;;;5014122;28;20029;-88
2021/12/06 11:06:27;;;;;;;57.07;31.57;;;5.20;99.30;;;;;;4997316;28;20026;-85
2021/12/06 11:08:56;;;;;;;51.60;28.57;;;5.10;99.10;;;;;;4996498;28;20034;-86
2021/12/06 11:11:31;;;;;;;60.83;31.67;;;5.10;99.10;;;;;;4996711;28;20046;-86
2021/12/06 11:14:05;;;;;;;59.27;30.40;;;5.10;99.10;;;;;;4996891;28;20042;-86
2021/12/06 11:16:46;;;;;;;54.57;29.53;;;5.00;99.10;;;;;;4996741;28;20022;-91
2021/12/06 11:19:15;;;;;;;60.10;31.97;;;5.00;99.20;;;;;;4996811;28;20010;-89
2021/12/06 11:21:43;;;;;;;61.53;31.47;;;5.00;99.20;;;;;;4993898;28;20474;-87
2021/12/06 11:24:09;;;;;;;59.17;29.43;;;5.00;99.30;;;;;;5015022;28;20030;-88
2021/12/06 11:26:41;;;;;;;57.90;28.13;;;5.00;99.30;;;;;;5006683;28;20496;-86
2021/12/06 11:29:07;;;;;;;62.00;29.63;;;5.00;99.40;;;;;;5015769;28;20481;-83
2021/12/06 11:31:33;;;;;;;55.87;29.17;;;5.00;99.40;;;;;;5007576;28;20026;-85
2021/12/06 11:34:03;;;;;;;58.10;28.90;;;4.90;99.30;;;;;;5004036;28;20038;-83
2021/12/06 11:36:31;;;;;;;58.93;30.10;;;5.00;99.60;;;;;;5010248;28;20021;-83
2021/12/06 11:39:14;;;;;;;50.90;26.07;;;5.00;99.30;;;;;;5013089;28;20022;-83
2021/12/06 11:41:45;;;;;;;52.43;25.33;;;4.90;99.20;;;;;;5013399;28;20025;-83
2021/12/06 11:44:15;;;;;;;55.63;27.20;;;5.00;99.30;;;;;;5007064;28;20026;-83
2021/12/06 11:46:41;;;;;;;57.90;28.13;;;5.00;99.30;;;;;;4996004;28;20026;-83
2021/12/06 11:49:22;;;;;;;55.90;26.97;;;4.90;99.20;;;;;;4994477;28;20022;-83
2021/12/06 11:51:50;;;;;;;58.90;28.63;;;4.90;99.30;;;;;;4994627;28;20113;-83
2021/12/06 11:54:16;;;;;;;63.87;28.17;;;4.90;99.30;;;;;;4999908;28;20084;-83
2021/12/06 11:56:45;;;;;;;55.33;27.87;;;4.90;99.30;;;;;;4965727;28;20061;-84
2021/12/06 11:59:12;;;;;;;55.17;25.83;;;4.90;99.40;;;;;;4997107;28;20109;-83
2021/12/06 12:01:45;;;;;;;50.30;25.40;;;4.90;99.40;;;;;;5015110;28;20030;-84
2021/12/06 12:04:15;;;;;;;50.60;25.27;;;4.90;99.30;;;;;;5014832;28;20028;-83
2021/12/06 12:06:44;;;;;;;52.43;24.67;;;4.90;99.30;;;;;;5015523;28;20021;-83
2021/12/06 12:09:21;;;;;;;42.20;21.93;;;4.90;99.20;;;;;;5011726;28;20018;-83
2021/12/06 12:12:23;;;;;;;50.37;23.53;;;4.90;99.00;;;;;;5034538;28;20512;-83
2021/12/06 12:14:55;;;;;;;45.50;22.43;;;4.80;98.90;;;;;;5011241;28;20045;-82
2021/12/06 12:17:27;;;;;;;47.80;22.90;;;4.80;98.90;;;;;;5005930;28;20080;-91
2021/12/06 12:19:56;;;;;;;41.67;22.57;;;4.80;98.80;;;;;;5032008;28;20017;-85
2021/12/06 12:22:22;;;;;;;46.07;23.03;;;4.70;98.80;;;;;;5035173;28;20393;-87
2021/12/06 12:24:52;;;;;;;41.83;21.93;;;4.70;98.90;;;;;;5017318;28;20116;-86
2021/12/06 12:27:32;;;;;;;42.57;21.17;;;4.70;98.90;;;;;;5034715;28;20045;-86
2021/12/06 12:30:00;;;;;;;39.73;20.50;;;4.70;98.90;;;;;;5017336;28;20053;-85
2021/12/06 12:32:28;;;;;;;39.53;22.07;;;4.70;98.90;;;;;;5017513;28;20018;-83
2021/12/06 12:34:59;;;;;;;39.60;21.03;;;4.50;98.80;;;;;;5016439;28;20045;-84
2021/12/06 12:37:25;;;;;;;37.63;20.27;;;4.60;98.80;;;;;;5034280;28;20101;-83
2021/12/06 12:39:59;;;;;;;39.33;21.20;;;4.60;98.90;;;;;;4999850;28;20112;-86
2021/12/06 12:42:25;;;;;;;39.65;20.70;;;4.60;98.90;;;;;;5016621;28;20017;-83
2021/12/06 12:44:52;;;;;;;44.77;20.63;;;4.60;99.00;;;;;;5016800;28;20022;-87
2021/12/06 12:47:27;;;;;;;41.17;21.20;;;4.60;99.00;;;;;;5016146;28;20131;-84
2021/12/06 12:50:15;;;;;;;39.00;20.63;;;4.60;99.00;;;;;;5033711;28;20017;-83
2021/12/06 12:52:47;;;;;;;43.23;22.00;;;4.70;99.00;;;;;;5027519;28;20101;-83
2021/12/06 12:55:36;;;;;;;42.23;21.17;;;4.70;99.00;;;;;;5021996;28;20096;-84
2021/12/06 12:58:19;;;;;;;48.73;22.57;;;4.70;99.00;;;;;;5014890;28;20484;-83